Time;durP1;ratioP1;P1;durP2;ratioP2;P2;SDS_P1;SDS_P2;PMS_P1;PMS_P2;Temp;Humidity;BMP_temperature;BMP_pressure;BME280_temperature;BME280_humidity;BME280_pressure;Samples;Min_cycle;Max_cycle;Signal;HPM_P1;HPM_P2
2023/12/17 17:41:01;;;;;;;;;;;;;;;20.38;54.25;101780.22;125181;1294;634365;-51
2023/12/17 17:44:07;;;;;;;;;;;;;;;21.16;53.79;101776.38;128437;1261;127895;-58
2023/12/17 17:52:15;;;;;;;5.40;2.40;;;;;;;22.75;52.17;101765.41;125440;1289;635804;-46
2023/12/17 17:57:48;;;;;;;43.20;23.40;;;;;;;21.85;45.36;101765.94;128157;1292;636102;-68
2023/12/17 18:00:57;;;;;;;46.10;23.30;;;;;;;19.35;43.66;101773.59;130996;1265;127907;-70
2023/12/17 18:04:04;;;;;;;45.40;25.00;;;;;;;17.17;43.88;101781.05;131215;1267;114675;-72
2023/12/17 18:07:08;;;;;;;42.20;24.20;;;;;;;15.40;44.45;101785.84;130932;1266;114671;-71
2023/12/17 18:10:12;;;;;;;39.30;22.10;;;;;;;13.94;45.23;101789.84;130434;1263;644154;-68
2023/12/17 18:13:15;;;;;;;38.40;21.70;;;;;;;12.73;46.18;101788.36;130909;1263;114760;-69
2023/12/17 18:16:20;;;;;;;35.50;20.80;;;;;;;11.69;47.10;101788.46;130909;1263;114698;-68
2023/12/17 18:19:23;;;;;;;37.20;21.50;;;;;;;10.85;47.99;101791.73;130954;1263;113610;-69
2023/12/17 18:22:29;;;;;;;38.20;22.10;;;;;;;10.12;48.74;101789.23;127932;1264;114057;-70
2023/12/17 18:25:35;;;;;;;35.00;20.80;;;;;;;9.52;49.94;101788.95;130929;1263;114780;-71
2023/12/17 18:28:38;;;;;;;42.80;24.90;;;;;;;9.00;50.44;101794.45;130934;1263;113190;-66
2023/12/17 18:31:42;;;;;;;39.20;23.10;;;;;;;8.54;51.43;101792.21;130872;1263;127835;-70
2023/12/17 18:34:45;;;;;;;36.50;23.20;;;;;;;8.16;52.24;101785.68;130878;1263;114703;-68
2023/12/17 18:37:48;;;;;;;39.70;24.60;;;;;;;7.80;52.97;101781.77;130923;1264;114732;-69
2023/12/17 18:40:53;;;;;;;54.80;33.00;;;;;;;7.49;53.55;101780.77;130900;1263;114635;-69
2023/12/17 18:43:56;;;;;;;;;;;;;;;7.19;54.43;101780.94;130894;1263;114786;-68
2023/12/17 18:46:59;;;;;;;54.00;30.40;;;;;;;6.96;55.12;101786.35;130843;1263;114635;-72
2023/12/17 18:50:05;;;;;;;54.40;30.50;;;;;;;6.73;55.58;101786.04;130831;1263;114651;-72
2023/12/17 18:53:07;;;;;;;56.50;30.80;;;;;;;6.51;56.11;101787.11;130981;1263;114678;-73
2023/12/17 18:56:11;;;;;;;64.10;32.90;;;;;;;6.33;56.74;101794.20;130908;1263;114703;-68
2023/12/17 18:59:14;;;;;;;56.30;31.80;;;;;;;6.17;57.39;101799.82;130911;1263;114693;-70
2023/12/17 19:02:18;;;;;;;58.10;31.00;;;;;;;6.03;58.00;101801.15;130912;1267;114785;-69
2023/12/17 19:05:20;;;;;;;61.60;32.10;;;;;;;5.92;58.56;101795.68;130902;1263;114712;-66
2023/12/17 19:08:23;;;;;;;61.70;32.90;;;;;;;5.84;58.80;101798.92;130910;1264;114660;-70
2023/12/17 19:11:29;;;;;;;59.60;34.30;;;;;;;5.75;59.22;101793.30;130881;1269;115293;-71
2023/12/17 19:14:33;;;;;;;52.70;30.30;;;;;;;5.67;59.71;101783.95;130940;1263;114691;-71
2023/12/17 19:17:36;;;;;;;48.30;29.10;;;;;;;5.59;60.24;101780.45;130968;1263;125665;-71
2023/12/17 19:20:40;;;;;;;50.90;28.00;;;;;;;5.49;60.65;101773.23;130898;1264;114533;-72
2023/12/17 19:23:42;;;;;;;53.10;27.80;;;;;;;5.41;60.97;101776.63;130926;1266;115329;-71
2023/12/17 19:26:45;;;;;;;48.30;26.60;;;;;;;5.33;61.33;101777.71;130930;1263;114712;-67
2023/12/17 19:29:49;;;;;;;46.90;25.90;;;;;;;5.27;61.56;101777.73;132061;1251;114780;-71
2023/12/17 19:33:02;;;;;;;58.80;30.10;;;;;;;5.19;61.83;101771.40;129272;1256;128127;-67
2023/12/17 19:36:05;;;;;;;71.70;33.30;;;;;;;5.12;62.19;101782.05;131662;1252;114897;-71
2023/12/17 19:39:08;;;;;;;66.00;32.30;;;;;;;5.07;62.59;101780.28;131934;1252;114734;-71
2023/12/17 19:42:11;;;;;;;69.20;33.40;;;;;;;5.04;63.02;101781.71;131879;1254;114680;-71
2023/12/17 19:45:15;;;;;;;68.70;32.60;;;;;;;5.00;63.11;101777.30;131899;1254;114693;-68
2023/12/17 19:48:18;;;;;;;76.00;35.30;;;;;;;4.96;63.34;101775.89;131674;1257;127937;-68
2023/12/17 19:51:21;;;;;;;71.20;33.30;;;;;;;4.93;63.53;101781.02;131890;1256;114684;-67
2023/12/17 19:54:23;;;;;;;82.70;36.90;;;;;;;4.92;63.88;101779.80;131923;1253;114499;-71
2023/12/17 19:57:26;;;;;;;82.40;35.70;;;;;;;4.90;64.05;101778.20;131923;1252;114437;-67
2023/12/17 20:00:32;;;;;;;77.60;35.20;;;;;;;4.89;64.29;101774.30;131907;1253;115225;-72
2023/12/17 20:03:34;;;;;;;84.40;35.10;;;;;;;4.88;64.56;101776.98;131722;1253;127845;-68
2023/12/17 20:06:37;;;;;;;83.50;35.40;;;;;;;4.85;64.81;101773.79;131871;1252;114680;-71
2023/12/17 20:09:42;;;;;;;75.90;34.00;;;;;;;4.82;64.92;101765.30;131933;1253;114683;-74
2023/12/17 20:12:49;;;;;;;77.80;32.20;;;;;;;4.79;65.02;101763.36;131757;1254;114760;-69
2023/12/17 20:15:55;;;;;;;72.10;31.40;;;;;;;4.76;65.39;101758.59;131674;1253;114780;-71
2023/12/17 20:19:00;;;;;;;70.50;31.20;;;;;;;4.74;65.38;101760.35;131670;1254;129619;-72
2023/12/17 20:22:04;;;;;;;61.10;28.20;;;;;;;4.70;65.52;101751.34;132017;1253;114639;-73
2023/12/17 20:25:08;;;;;;;50.10;23.80;;;;;;;4.69;65.91;101755.42;131989;1253;113832;-73
2023/12/17 20:28:11;;;;;;;47.00;20.90;;;;;;;4.69;66.11;101760.38;131929;1252;114776;-69
2023/12/17 20:31:15;;;;;;;38.20;19.20;;;;;;;4.69;66.24;101756.48;131854;1252;114712;-69
2023/12/17 20:34:19;;;;;;;35.50;17.00;;;;;;;4.68;66.43;101755.41;131777;1254;128068;-71
2023/12/17 20:37:22;;;;;;;34.50;15.10;;;;;;;4.66;66.62;101752.23;131868;1253;114638;-66
2023/12/17 20:40:28;;;;;;;27.30;14.70;;;;;;;4.67;66.73;101753.99;128806;1256;114571;-65
2023/12/17 20:43:34;;;;;;;30.20;14.50;;;;;;;4.67;66.89;101749.21;131939;1253;114622;-65
2023/12/17 20:46:38;;;;;;;28.40;14.00;;;;;;;4.68;67.16;101753.65;131786;1254;114613;-72
2023/12/17 20:49:41;;;;;;;27.80;14.00;;;;;;;4.68;67.31;101746.04;131888;1254;128696;-73
2023/12/17 20:52:44;;;;;;;28.10;13.40;;;;;;;4.67;67.20;101739.84;131924;1254;114690;-72
2023/12/17 20:55:47;;;;;;;24.00;11.70;;;;;;;4.64;67.26;101731.70;131899;1253;114677;-71
2023/12/17 20:58:55;;;;;;;20.60;11.40;;;;;;;4.61;67.39;101729.06;131856;1254;113381;-71
2023/12/17 21:01:57;;;;;;;18.00;10.50;;;;;;;4.59;67.53;101731.89;131859;1254;114671;-67
2023/12/17 21:05:03;;;;;;;26.00;14.30;;;;;;;4.59;67.66;101728.17;128874;1256;114690;-67
2023/12/17 21:08:06;;;;;;;22.30;13.80;;;;;;;4.59;67.78;101731.36;131899;1253;114683;-65
2023/12/17 21:11:09;;;;;;;20.10;11.20;;;;;;;4.58;67.72;101726.93;131892;1255;114789;-69
2023/12/17 21:14:15;;;;;;;19.80;10.40;;;;;;;4.56;68.05;101725.52;128873;1253;114854;-65
2023/12/17 21:17:20;;;;;;;15.60;8.60;;;;;;;4.55;68.15;101720.23;128842;1256;114737;-67
2023/12/17 21:20:23;;;;;;;;;;;;;;;4.53;68.39;101713.14;131586;1256;127808;-71
2023/12/17 21:23:25;;;;;;;17.50;8.50;;;;;;;4.51;68.32;101714.57;131836;1253;113184;-67
2023/12/17 21:26:28;;;;;;;17.20;9.00;;;;;;;4.49;68.47;101720.58;131834;1253;114161;-66
2023/12/17 21:29:31;;;;;;;17.70;9.70;;;;;;;4.48;68.44;101717.04;131892;1254;114677;-66
2023/12/17 21:32:34;;;;;;;22.40;11.80;;;;;;;4.46;68.51;101720.42;132016;1253;115176;-67
2023/12/17 21:35:38;;;;;;;19.40;10.50;;;;;;;4.43;68.40;101723.42;131761;1253;114763;-71
2023/12/17 21:38:42;;;;;;;21.70;11.40;;;;;;;4.39;68.63;101722.73;131895;1253;128830;-67
2023/12/17 21:41:46;;;;;;;20.10;10.30;;;;;;;4.36;68.65;101722.20;131953;1256;114726;-66
2023/12/17 21:44:49;;;;;;;20.60;11.00;;;;;;;4.31;68.67;101720.60;131911;1253;114688;-65
2023/12/17 21:47:53;;;;;;;20.40;10.80;;;;;;;4.25;68.61;101720.77;131922;1254;114681;-66
2023/12/17 21:51:01;;;;;;;22.30;11.70;;;;;;;4.18;68.63;101722.73;128922;1256;114594;-65
2023/12/17 21:54:07;;;;;;;21.00;11.40;;;;;;;4.10;68.71;101717.95;128786;1253;127943;-65
2023/12/17 21:57:12;;;;;;;21.30;10.40;;;;;;;4.05;68.81;101713.71;128891;1251;113835;-65
2023/12/17 22:00:18;;;;;;;21.80;10.80;;;;;;;3.99;68.93;101709.11;131692;1253;114596;-66
2023/12/17 22:03:22;;;;;;;18.70;10.70;;;;;;;3.93;68.91;101705.05;131840;1253;114626;-66
2023/12/17 22:06:25;;;;;;;20.50;11.30;;;;;;;3.87;68.96;101710.51;131099;1251;114639;-65
2023/12/17 22:09:28;;;;;;;21.30;11.10;;;;;;;3.81;69.09;101710.85;131871;1256;114697;-66
2023/12/17 22:12:31;;;;;;;21.70;11.50;;;;;;;3.75;69.15;101713.51;131921;1253;114639;-66
2023/12/17 22:15:34;;;;;;;21.90;11.80;;;;;;;3.68;69.29;101720.03;131682;1254;114754;-66
2023/12/17 22:18:37;;;;;;;25.00;12.10;;;;;;;3.61;69.20;101718.60;131858;1253;115326;-67
2023/12/17 22:21:40;;;;;;;21.30;11.40;;;;;;;3.56;69.39;101712.59;131841;1254;114617;-65
2023/12/17 22:24:45;;;;;;;24.60;11.80;;;;;;;3.51;69.24;101706.93;128782;1254;114702;-66
2023/12/17 22:27:48;;;;;;;22.50;11.70;;;;;;;3.45;69.50;101709.74;131599;1256;113971;-66
2023/12/17 22:30:53;;;;;;;19.20;10.40;;;;;;;3.40;69.59;101706.72;128862;1256;114682;-65
2023/12/17 22:33:56;;;;;;;20.50;11.20;;;;;;;3.35;69.75;101701.93;131916;1252;114684;-66
2023/12/17 22:37:01;;;;;;;18.20;10.50;;;;;;;3.30;69.81;101704.02;128738;1256;114696;-66
2023/12/17 22:40:05;;;;;;;20.40;11.00;;;;;;;3.25;70.01;101701.73;131845;1254;128930;-66
2023/12/17 22:43:12;;;;;;;21.90;11.70;;;;;;;3.19;69.79;101701.71;128642;1256;114696;-65
2023/12/17 22:46:25;;;;;;;20.90;11.60;;;;;;;3.15;70.18;101702.23;131884;1253;114684;-64
2023/12/17 22:49:49;;;;;;;20.00;11.60;;;;;;;3.10;70.11;101699.38;128779;1254;114448;-66
2023/12/17 22:52:53;;;;;;;22.40;12.10;;;;;;;3.06;70.09;101698.30;128880;1253;114679;-66
2023/12/17 22:55:57;;;;;;;25.50;14.00;;;;;;;3.01;70.17;101691.92;131940;1252;128580;-66
2023/12/17 22:59:00;;;;;;;23.70;13.10;;;;;;;2.97;70.36;101698.43;131850;1254;114754;-65
2023/12/17 23:02:02;;;;;;;26.00;14.60;;;;;;;2.94;70.81;101702.48;131865;1252;114615;-65
2023/12/17 23:05:06;;;;;;;26.40;13.60;;;;;;;2.94;71.00;101703.73;131870;1253;114527;-66
2023/12/17 23:08:12;;;;;;;23.00;12.60;;;;;;;2.95;70.83;101705.31;128702;1256;115275;-65
2023/12/17 23:11:20;;;;;;;22.30;12.90;;;;;;;2.93;71.12;101702.13;128783;1253;128647;-65
2023/12/17 23:14:26;;;;;;;22.80;11.40;;;;;;;2.91;70.77;101700.87;128793;1254;114681;-65
2023/12/17 23:17:30;;;;;;;23.50;12.30;;;;;;;2.87;70.82;101700.86;128749;1256;114732;-66
2023/12/17 23:20:37;;;;;;;;;;;;;;;2.84;71.10;101699.77;128897;1253;114678;-65
2023/12/17 23:23:40;;;;;;;21.90;11.70;;;;;;;2.79;70.82;101697.48;128791;1254;114808;-66
2023/12/17 23:26:44;;;;;;;23.40;11.00;;;;;;;2.72;71.04;101689.14;131757;1254;128692;-66
2023/12/17 23:29:50;;;;;;;21.80;12.00;;;;;;;2.64;71.12;101689.61;128744;1253;114857;-65
2023/12/17 23:32:53;;;;;;;30.20;12.30;;;;;;;2.58;71.03;101686.05;131832;1254;114684;-66
2023/12/17 23:35:59;;;;;;;21.00;11.50;;;;;;;2.54;71.51;101688.52;128754;1261;114697;-65
2023/12/17 23:39:03;;;;;;;32.60;14.70;;;;;;;2.51;71.22;101689.37;131969;1252;114725;-65
2023/12/17 23:42:07;;;;;;;32.10;14.70;;;;;;;2.49;71.86;101693.23;128723;1256;128825;-66
2023/12/17 23:45:12;;;;;;;35.60;14.10;;;;;;;2.49;71.83;101692.01;128872;1256;115314;-65
2023/12/17 23:48:16;;;;;;;33.90;15.00;;;;;;;2.45;71.58;101685.81;131845;1254;114904;-66
2023/12/17 23:51:19;;;;;;;30.00;14.30;;;;;;;2.41;71.74;101684.02;131853;1254;114801;-66
2023/12/17 23:54:21;;;;;;;29.20;14.00;;;;;;;2.36;71.60;101681.86;131816;1254;114745;-65
2023/12/17 23:57:25;;;;;;;28.30;12.80;;;;;;;2.33;71.55;101678.50;131784;1254;114641;-65
